Time;durP1;ratioP1;P1;durP2;ratioP2;P2;SDS_P1;SDS_P2;PMS_P1;PMS_P2;Temp;Humidity;BMP_temperature;BMP_pressure;BME280_temperature;BME280_humidity;BME280_pressure;Samples;Min_cycle;Max_cycle;Signal;HPM_P1;HPM_P2
2023/01/16 00:02:16;;;;;;;7.77;1.10;;;6.00;99.90;;;;;;5037542;28;20080;-82
2023/01/16 00:04:41;;;;;;;5.90;0.93;;;6.00;99.90;;;;;;5037413;28;20460;-83
2023/01/16 00:07:07;;;;;;;5.43;1.30;;;6.00;99.90;;;;;;5055235;28;20441;-83
2023/01/16 00:09:33;;;;;;;9.27;1.07;;;6.00;99.90;;;;;;5037366;28;20129;-83
2023/01/16 00:11:58;;;;;;;4.07;1.03;;;6.00;99.90;;;;;;5037220;28;20128;-82
2023/01/16 00:14:24;;;;;;;3.43;1.00;;;6.00;99.90;;;;;;5037474;28;20115;-83
2023/01/16 00:16:50;;;;;;;4.70;1.07;;;6.00;99.90;;;;;;5053653;28;20467;-83
2023/01/16 00:19:15;;;;;;;3.27;1.30;;;6.00;99.90;;;;;;5053720;28;20029;-83
2023/01/16 00:21:41;;;;;;;3.57;1.23;;;5.90;99.90;;;;;;5037012;28;20036;-82
2023/01/16 00:24:08;;;;;;;7.23;1.27;;;5.90;99.90;;;;;;5054018;28;20051;-83
2023/01/16 00:26:33;;;;;;;4.63;1.73;;;5.90;99.90;;;;;;5036961;28;20032;-83
2023/01/16 00:28:59;;;;;;;5.53;1.40;;;5.90;99.90;;;;;;5053536;28;20017;-83
2023/01/16 00:31:25;;;;;;;6.53;2.10;;;5.90;99.90;;;;;;5036836;28;20029;-82
2023/01/16 00:33:51;;;;;;;3.73;1.90;;;5.80;99.90;;;;;;5036889;28;20128;-83
2023/01/16 00:36:17;;;;;;;5.00;2.50;;;5.80;99.90;;;;;;5036684;28;20025;-83
2023/01/16 00:38:43;;;;;;;7.23;3.23;;;5.80;99.90;;;;;;5036838;28;20083;-82
2023/01/16 00:41:08;;;;;;;7.00;3.87;;;5.80;99.90;;;;;;5037544;28;20056;-82
2023/01/16 00:43:34;;;;;;;6.30;3.67;;;5.80;99.90;;;;;;5036626;28;20550;-82
2023/01/16 00:46:00;;;;;;;6.97;4.40;;;5.80;99.90;;;;;;5036555;28;20025;-83
2023/01/16 00:48:25;;;;;;;10.03;4.90;;;5.80;99.90;;;;;;5036452;28;20036;-84
2023/01/16 00:50:51;;;;;;;8.47;4.57;;;5.80;99.90;;;;;;5036067;28;20032;-82
2023/01/16 00:53:17;;;;;;;10.13;5.63;;;5.80;99.90;;;;;;5053318;28;20385;-83
2023/01/16 00:55:42;;;;;;;10.57;5.87;;;5.80;99.90;;;;;;5036445;28;20473;-84
2023/01/16 00:58:09;;;;;;;9.17;6.03;;;5.80;99.90;;;;;;5053079;28;20470;-82
2023/01/16 01:00:36;;;;;;;11.93;6.30;;;5.70;99.90;;;;;;5053074;28;20060;-83
2023/01/16 01:03:03;;;;;;;11.33;7.63;;;5.70;99.90;;;;;;5053203;28;20040;-83
2023/01/16 01:05:28;;;;;;;12.07;8.63;;;5.80;99.90;;;;;;5036134;28;20033;-83
2023/01/16 01:07:54;;;;;;;11.27;7.50;;;5.80;99.90;;;;;;5052732;28;20029;-82
2023/01/16 01:10:20;;;;;;;12.57;7.43;;;5.70;99.90;;;;;;5036172;28;20036;-84
2023/01/16 01:12:46;;;;;;;12.03;7.33;;;5.70;99.90;;;;;;5053461;28;20025;-82
2023/01/16 01:15:11;;;;;;;11.33;7.47;;;5.70;99.90;;;;;;5053043;28;20033;-82
2023/01/16 01:17:37;;;;;;;10.60;6.97;;;5.70;99.90;;;;;;5053267;28;20046;-82
2023/01/16 01:20:04;;;;;;;11.40;7.37;;;5.70;99.90;;;;;;5052603;28;20025;-82
2023/01/16 01:22:29;;;;;;;11.50;7.40;;;5.70;99.90;;;;;;5052337;28;20025;-83
2023/01/16 01:24:55;;;;;;;12.53;7.93;;;5.70;99.90;;;;;;5036135;28;20086;-83
2023/01/16 01:27:21;;;;;;;10.03;7.23;;;5.70;99.90;;;;;;5035864;28;20036;-83
2023/01/16 01:29:46;;;;;;;9.60;6.27;;;5.70;99.90;;;;;;5035929;28;20448;-83
2023/01/16 01:32:12;;;;;;;10.10;5.77;;;5.70;99.90;;;;;;5035754;28;20040;-83
2023/01/16 01:34:37;;;;;;;8.40;5.33;;;5.60;99.90;;;;;;5035663;28;20049;-83
2023/01/16 01:37:05;;;;;;;8.83;5.30;;;5.60;99.90;;;;;;5035780;28;20067;-83
2023/01/16 01:39:31;;;;;;;7.37;4.83;;;5.60;99.90;;;;;;5052436;28;20475;-82
2023/01/16 01:44:52;;;;;;;8.10;4.27;;;5.60;99.90;;;;;;5053569;28;20174;-82
2023/01/16 01:47:22;;;;;;;11.10;5.57;;;5.60;99.90;;;;;;5052361;28;20017;-82
2023/01/16 01:49:49;;;;;;;13.53;5.53;;;5.60;99.90;;;;;;5052295;28;20021;-83
2023/01/16 01:52:15;;;;;;;9.37;4.90;;;5.60;99.90;;;;;;5052364;28;20055;-81
2023/01/16 01:54:46;;;;;;;9.83;4.33;;;5.50;99.90;;;;;;5052088;28;20036;-81
2023/01/16 01:57:27;;;;;;;9.87;4.30;;;5.70;99.90;;;;;;5052070;28;20023;-83
2023/01/16 02:00:05;;;;;;;8.83;3.67;;;5.50;99.90;;;;;;5052315;28;20394;-84
2023/01/16 02:02:39;;;;;;;12.23;3.57;;;5.50;99.90;;;;;;5051350;28;20024;-82
2023/01/16 02:05:08;;;;;;;6.50;3.20;;;5.50;99.90;;;;;;5052109;28;20385;-83
2023/01/16 02:07:34;;;;;;;11.70;3.23;;;5.50;99.90;;;;;;5036109;28;20086;-84
2023/01/16 02:10:16;;;;;;;10.10;2.73;;;5.50;99.90;;;;;;5035315;28;20358;-83
2023/01/16 02:12:42;;;;;;;6.27;1.97;;;5.50;99.90;;;;;;5051898;28;20028;-82
2023/01/16 02:15:08;;;;;;;6.27;2.00;;;5.40;99.90;;;;;;5035275;28;20029;-82
2023/01/16 02:20:21;;;;;;;11.73;2.40;;;5.50;99.90;;;;;;5052485;28;20090;-82
2023/01/16 02:23:11;;;;;;;8.07;1.97;;;5.50;99.90;;;;;;5051797;28;20477;-82
2023/01/16 02:26:01;;;;;;;15.97;2.03;;;5.50;99.90;;;;;;5051828;28;20025;-82
2023/01/16 02:28:42;;;;;;;5.73;1.60;;;5.50;99.90;;;;;;5051909;28;20112;-83
2023/01/16 02:31:31;;;;;;;9.23;1.60;;;5.40;99.90;;;;;;5051795;28;20021;-83
2023/01/16 02:34:05;;;;;;;7.60;1.53;;;5.40;99.90;;;;;;5051608;28;20052;-82
2023/01/16 02:36:46;;;;;;;8.03;1.67;;;5.30;99.90;;;;;;5051633;28;20436;-83
2023/01/16 02:39:49;;;;;;;6.20;1.40;;;5.30;99.90;;;;;;5052917;28;20063;-83
2023/01/16 02:42:41;;;;;;;6.27;1.50;;;5.20;99.90;;;;;;5054133;28;20035;-83
2023/01/16 02:45:12;;;;;;;5.90;1.43;;;5.10;99.90;;;;;;5037165;28;20572;-83
2023/01/16 02:47:55;;;;;;;5.43;1.03;;;5.10;99.90;;;;;;5051719;28;20036;-78
2023/01/16 02:50:32;;;;;;;8.63;1.57;;;5.00;99.90;;;;;;5051604;28;20488;-78
2023/01/16 02:53:21;;;;;;;4.03;1.10;;;4.90;99.90;;;;;;5051746;28;20039;-78
2023/01/16 02:55:53;;;;;;;6.80;1.33;;;4.90;99.90;;;;;;5051375;28;20388;-79
2023/01/16 02:58:21;;;;;;;4.03;1.10;;;4.90;99.90;;;;;;5051482;28;20384;-78
2023/01/16 03:00:58;;;;;;;7.07;1.20;;;4.80;99.90;;;;;;5051425;28;20065;-78
2023/01/16 03:03:54;;;;;;;6.50;1.10;;;4.80;99.90;;;;;;5051492;28;20057;-78
2023/01/16 03:06:19;;;;;;;6.10;1.30;;;4.80;99.90;;;;;;5051344;28;20477;-79
2023/01/16 03:08:54;;;;;;;8.47;1.07;;;4.70;99.90;;;;;;5052671;28;20017;-78
2023/01/16 03:11:24;;;;;;;6.93;1.23;;;4.70;99.90;;;;;;5051312;28;20028;-80
2023/01/16 03:14:11;;;;;;;5.13;1.33;;;4.70;99.90;;;;;;5055574;28;20021;-79
2023/01/16 03:16:39;;;;;;;3.63;1.10;;;4.60;99.90;;;;;;5054972;28;20539;-79
2023/01/16 03:19:42;;;;;;;7.03;1.30;;;4.70;99.90;;;;;;5056059;28;20484;-79
2023/01/16 03:22:11;;;;;;;6.63;1.10;;;4.60;99.90;;;;;;5054680;28;20389;-78
2023/01/16 03:24:59;;;;;;;7.73;1.33;;;4.70;99.90;;;;;;5054583;28;20110;-79
2023/01/16 03:27:57;;;;;;;5.20;1.27;;;4.60;99.90;;;;;;5054820;28;20021;-79
2023/01/16 03:30:52;;;;;;;3.17;1.03;;;4.60;99.90;;;;;;5054799;28;20021;-79
2023/01/16 03:33:21;;;;;;;8.03;1.40;;;4.60;99.90;;;;;;5054509;28;20025;-79
2023/01/16 03:35:53;;;;;;;4.90;1.00;;;4.60;99.90;;;;;;5054557;28;20024;-79
2023/01/16 03:38:21;;;;;;;3.60;0.77;;;4.60;99.90;;;;;;5054437;28;20056;-79
2023/01/16 03:40:48;;;;;;;3.50;0.70;;;4.50;99.90;;;;;;5054702;28;20048;-78
2023/01/16 03:43:22;;;;;;;4.43;1.00;;;4.50;99.90;;;;;;5037935;28;20025;-79
2023/01/16 03:45:54;;;;;;;4.53;0.80;;;4.50;99.90;;;;;;5054266;28;20029;-79
2023/01/16 03:48:40;;;;;;;9.00;1.00;;;4.50;99.90;;;;;;5054233;28;20057;-79
2023/01/16 03:51:08;;;;;;;7.90;0.83;;;4.50;99.90;;;;;;5054183;28;20385;-79
2023/01/16 03:53:43;;;;;;;6.00;0.87;;;4.50;99.90;;;;;;5054328;28;20017;-79
2023/01/16 03:56:20;;;;;;;5.33;0.90;;;4.50;99.90;;;;;;5054115;28;20028;-78
2023/01/16 03:58:48;;;;;;;6.40;1.27;;;4.50;99.90;;;;;;5054139;28;20043;-78
2023/01/16 04:01:36;;;;;;;7.97;2.17;;;4.50;99.90;;;;;;5055239;28;20028;-79
2023/01/16 04:04:33;;;;;;;4.03;1.00;;;4.40;99.90;;;;;;5053827;28;20033;-79
2023/01/16 04:07:08;;;;;;;8.57;1.40;;;4.40;99.90;;;;;;5054430;28;20108;-78
2023/01/16 04:09:56;;;;;;;6.07;1.23;;;4.50;99.90;;;;;;5054156;28;20017;-79
2023/01/16 04:12:27;;;;;;;4.87;0.77;;;4.50;99.90;;;;;;5054069;28;20024;-79
2023/01/16 04:14:58;;;;;;;3.47;0.80;;;4.50;99.90;;;;;;5055171;28;20477;-79
2023/01/16 04:17:26;;;;;;;4.47;0.80;;;4.40;99.90;;;;;;5055255;28;20497;-79
2023/01/16 04:19:51;;;;;;;3.63;0.93;;;4.50;99.90;;;;;;5068141;28;20025;-79
2023/01/16 04:22:23;;;;;;;5.07;0.77;;;4.40;99.90;;;;;;5050095;28;20033;-79
2023/01/16 04:24:51;;;;;;;5.70;0.73;;;4.50;99.90;;;;;;5059503;28;20021;-79
2023/01/16 04:27:17;;;;;;;9.00;0.70;;;4.50;99.90;;;;;;5056552;28;20151;-79
2023/01/16 04:29:43;;;;;;;4.07;0.80;;;4.60;99.90;;;;;;5054132;28;20021;-79
2023/01/16 04:32:09;;;;;;;6.07;1.00;;;4.60;99.90;;;;;;5037050;28;20030;-79
2023/01/16 04:34:34;;;;;;;4.67;0.53;;;4.50;99.90;;;;;;5036795;28;20045;-80
2023/01/16 04:37:00;;;;;;;3.13;0.70;;;4.50;99.90;;;;;;5036614;28;20508;-79
2023/01/16 04:39:26;;;;;;;4.80;0.87;;;4.60;99.90;;;;;;5036723;28;20028;-79
2023/01/16 04:41:51;;;;;;;4.40;0.90;;;4.60;99.90;;;;;;5053340;28;20520;-79
2023/01/16 04:44:17;;;;;;;8.83;1.20;;;4.60;99.90;;;;;;5036517;28;20095;-79
2023/01/16 04:46:43;;;;;;;9.60;1.10;;;4.60;99.90;;;;;;5053247;28;20021;-79
2023/01/16 04:49:09;;;;;;;7.67;0.90;;;4.50;99.90;;;;;;5036683;28;20027;-79
2023/01/16 04:51:36;;;;;;;4.57;1.17;;;4.50;99.90;;;;;;5038210;28;20017;-79
2023/01/16 04:54:05;;;;;;;8.30;1.33;;;4.60;99.90;;;;;;5072214;28;20025;-78
2023/01/16 04:56:32;;;;;;;6.23;1.20;;;4.50;99.90;;;;;;5073110;28;20734;-79
2023/01/16 04:58:57;;;;;;;6.80;1.50;;;4.50;99.90;;;;;;5056413;28;20135;-78
2023/01/16 05:01:23;;;;;;;5.50;1.40;;;4.60;99.90;;;;;;5056267;28;20524;-79
2023/01/16 05:03:49;;;;;;;6.00;1.93;;;4.50;99.90;;;;;;5072692;28;20044;-79
2023/01/16 05:06:16;;;;;;;5.17;0.87;;;4.50;99.90;;;;;;5072795;28;20473;-78
2023/01/16 05:08:41;;;;;;;5.83;1.20;;;4.40;99.90;;;;;;5072748;28;20361;-78
2023/01/16 05:11:07;;;;;;;2.27;0.77;;;4.50;99.90;;;;;;5072928;28;20112;-78
2023/01/16 05:13:33;;;;;;;8.63;1.10;;;4.50;99.90;;;;;;5055938;28;20028;-77
2023/01/16 05:15:58;;;;;;;5.93;1.23;;;4.50;99.90;;;;;;5055736;28;20077;-77
2023/01/16 05:18:24;;;;;;;7.70;1.07;;;4.50;99.90;;;;;;5055915;28;20489;-78
2023/01/16 05:20:50;;;;;;;8.93;1.17;;;4.50;99.90;;;;;;5055795;28;20036;-78
2023/01/16 05:23:16;;;;;;;5.23;1.00;;;4.50;99.90;;;;;;5073591;28;20500;-78
2023/01/16 05:25:43;;;;;;;6.87;1.00;;;4.50;99.90;;;;;;5072324;28;20027;-78
2023/01/16 05:28:09;;;;;;;11.00;1.27;;;4.50;99.90;;;;;;5072354;28;20070;-81
2023/01/16 05:30:35;;;;;;;4.73;1.00;;;4.50;99.90;;;;;;5072312;28;20389;-82
2023/01/16 05:33:02;;;;;;;5.37;0.90;;;4.50;99.90;;;;;;5072119;28;20107;-81
2023/01/16 05:35:27;;;;;;;5.87;1.17;;;4.50;99.90;;;;;;5072173;28;20033;-81
2023/01/16 05:37:56;;;;;;;5.60;1.10;;;4.50;99.90;;;;;;5072569;28;20028;-81
2023/01/16 05:40:21;;;;;;;4.33;0.97;;;4.50;99.90;;;;;;5072083;28;20077;-82
2023/01/16 05:42:47;;;;;;;6.33;1.30;;;4.50;99.90;;;;;;5073596;28;20032;-82
2023/01/16 05:45:13;;;;;;;8.87;1.83;;;4.50;99.90;;;;;;5041435;28;20040;-82
2023/01/16 05:47:39;;;;;;;5.57;1.63;;;4.70;99.90;;;;;;5051965;28;20066;-82
2023/01/16 05:50:05;;;;;;;6.73;1.60;;;4.60;99.90;;;;;;5035192;28;20029;-82
2023/01/16 05:52:30;;;;;;;7.40;1.87;;;4.50;99.90;;;;;;5060244;28;20017;-82
2023/01/16 05:54:56;;;;;;;6.37;1.30;;;4.60;99.90;;;;;;5052297;28;20033;-82
2023/01/16 05:57:22;;;;;;;7.07;1.43;;;4.60;99.90;;;;;;5050420;28;20095;-81
2023/01/16 05:59:51;;;;;;;7.03;1.43;;;4.70;99.90;;;;;;5014641;28;20112;-82
2023/01/16 06:02:18;;;;;;;6.40;1.97;;;4.70;99.90;;;;;;5045734;28;20025;-82
2023/01/16 06:04:44;;;;;;;9.53;1.70;;;4.70;99.90;;;;;;5052450;28;20075;-82
2023/01/16 06:07:11;;;;;;;6.67;1.40;;;4.70;99.90;;;;;;5055919;28;20457;-81
2023/01/16 06:09:43;;;;;;;7.00;1.17;;;4.80;99.90;;;;;;5052055;28;20031;-82
2023/01/16 06:12:15;;;;;;;7.80;1.20;;;4.80;99.90;;;;;;5072044;28;20020;-82
2023/01/16 06:14:41;;;;;;;8.30;1.23;;;4.80;99.90;;;;;;5072417;28;20414;-82
2023/01/16 06:17:06;;;;;;;7.07;1.47;;;4.80;99.90;;;;;;5055244;28;20025;-81
2023/01/16 06:19:32;;;;;;;6.90;1.30;;;4.90;99.90;;;;;;5055414;28;20029;-81
2023/01/16 06:21:58;;;;;;;5.57;0.80;;;4.80;99.90;;;;;;5072227;28;20357;-81
2023/01/16 06:24:23;;;;;;;5.03;0.80;;;4.90;99.90;;;;;;5073111;28;20162;-81
2023/01/16 06:26:49;;;;;;;7.03;1.03;;;4.90;99.90;;;;;;5055300;28;20610;-81
2023/01/16 06:29:15;;;;;;;4.50;0.97;;;4.90;99.90;;;;;;5055021;28;20032;-81
2023/01/16 06:31:43;;;;;;;5.27;1.23;;;5.00;99.90;;;;;;5055107;28;20389;-81
2023/01/16 06:34:09;;;;;;;9.83;1.67;;;5.10;99.90;;;;;;5071880;28;20040;-81
2023/01/16 06:36:35;;;;;;;6.77;1.30;;;5.00;99.90;;;;;;5042428;28;20028;-85
2023/01/16 06:39:01;;;;;;;6.97;1.87;;;5.00;99.90;;;;;;5051993;28;20029;-84
2023/01/16 06:41:33;;;;;;;8.17;2.20;;;5.00;99.90;;;;;;5052031;28;20028;-84
2023/01/16 06:43:59;;;;;;;5.97;2.00;;;5.10;99.90;;;;;;5052096;28;20021;-83
2023/01/16 06:46:27;;;;;;;9.37;1.90;;;5.10;99.90;;;;;;5052048;28;20025;-84
2023/01/16 06:48:52;;;;;;;8.93;1.73;;;5.10;99.90;;;;;;5054735;28;20108;-84
2023/01/16 06:51:21;;;;;;;8.63;1.20;;;5.10;99.90;;;;;;5056640;28;20060;-83
2023/01/16 06:53:46;;;;;;;5.33;1.20;;;5.10;99.90;;;;;;5055769;28;20469;-84
2023/01/16 06:56:12;;;;;;;6.43;1.50;;;5.20;99.90;;;;;;5055695;28;20082;-84
2023/01/16 06:58:38;;;;;;;5.77;1.20;;;5.20;99.90;;;;;;5055926;28;20025;-84
2023/01/16 07:01:06;;;;;;;5.07;0.87;;;5.20;99.90;;;;;;5055907;28;20029;-85
2023/01/16 07:03:33;;;;;;;5.93;0.83;;;5.30;99.90;;;;;;5055853;28;20021;-84
2023/01/16 07:05:58;;;;;;;3.77;0.80;;;5.30;99.90;;;;;;5056440;28;20030;-84
2023/01/16 07:08:33;;;;;;;2.60;0.60;;;5.30;99.90;;;;;;5055285;28;20030;-85
2023/01/16 07:11:00;;;;;;;4.80;1.17;;;5.30;99.90;;;;;;5019861;28;20141;-84
2023/01/16 07:13:29;;;;;;;5.50;0.80;;;5.30;99.90;;;;;;5051583;28;20056;-84
2023/01/16 07:24:12;;;;;;;3.80;0.60;;;5.30;99.90;;;;;;5036121;28;20036;-81
2023/01/16 07:26:42;;;;;;;3.37;0.77;;;5.30;99.90;;;;;;5051812;28;20539;-80
2023/01/16 07:29:09;;;;;;;3.73;0.70;;;5.20;99.90;;;;;;5051371;28;20028;-80
2023/01/16 07:31:35;;;;;;;4.70;1.23;;;5.30;99.90;;;;;;5034930;28;20033;-80
2023/01/16 07:34:01;;;;;;;4.20;0.90;;;5.30;99.90;;;;;;5051204;28;20045;-81
2023/01/16 07:36:26;;;;;;;9.30;0.90;;;5.30;99.90;;;;;;5034614;28;20032;-82
2023/01/16 07:38:52;;;;;;;4.77;1.03;;;5.20;99.90;;;;;;5051226;28;20398;-81
2023/01/16 07:41:18;;;;;;;6.70;1.50;;;5.20;99.90;;;;;;5034527;28;20512;-82
2023/01/16 07:43:43;;;;;;;4.97;1.20;;;5.20;99.90;;;;;;5034783;28;20389;-82
2023/01/16 07:46:09;;;;;;;5.53;1.13;;;5.30;99.90;;;;;;5035242;28;20025;-81
2023/01/16 07:48:35;;;;;;;3.77;1.00;;;5.30;99.90;;;;;;5035045;28;20045;-82
2023/01/16 07:51:01;;;;;;;5.50;1.00;;;5.30;99.90;;;;;;5034172;28;20124;-84
2023/01/16 07:53:28;;;;;;;3.83;1.10;;;5.30;99.90;;;;;;5051088;28;20064;-81
2023/01/16 07:55:56;;;;;;;5.33;1.13;;;5.30;99.90;;;;;;5051602;28;20032;-80
2023/01/16 07:58:22;;;;;;;5.10;1.33;;;5.30;99.90;;;;;;5050863;28;20489;-81
2023/01/16 08:00:48;;;;;;;3.17;0.90;;;5.30;99.90;;;;;;5050800;28;20031;-80
2023/01/16 08:03:14;;;;;;;5.17;1.50;;;5.40;99.90;;;;;;5067352;28;20033;-80
2023/01/16 08:05:40;;;;;;;5.07;1.17;;;5.30;99.90;;;;;;5050561;28;20425;-81
2023/01/16 08:08:06;;;;;;;6.00;1.10;;;5.40;99.90;;;;;;5050683;28;20030;-81
2023/01/16 08:10:32;;;;;;;4.30;0.73;;;5.30;99.90;;;;;;5050555;28;20029;-80
2023/01/16 08:12:58;;;;;;;4.47;0.93;;;5.30;99.90;;;;;;5050488;28;20129;-80
2023/01/16 08:15:24;;;;;;;5.60;1.20;;;5.30;99.90;;;;;;5067130;28;20036;-79
2023/01/16 08:17:49;;;;;;;3.90;0.80;;;5.30;99.90;;;;;;5067240;28;20096;-82
2023/01/16 08:20:15;;;;;;;3.73;0.80;;;5.30;99.90;;;;;;5050499;28;20473;-81
2023/01/16 08:22:45;;;;;;;8.27;1.30;;;5.30;99.90;;;;;;5050426;28;20064;-79
2023/01/16 08:25:12;;;;;;;4.30;0.90;;;5.30;99.90;;;;;;5050450;28;20029;-80
2023/01/16 08:27:37;;;;;;;4.43;1.00;;;5.40;99.90;;;;;;5050481;28;20017;-80
2023/01/16 08:30:05;;;;;;;5.43;0.80;;;5.40;99.90;;;;;;5066805;28;20032;-80
2023/01/16 08:32:30;;;;;;;7.17;1.63;;;5.40;99.90;;;;;;5066865;28;20121;-80
2023/01/16 08:34:56;;;;;;;5.87;0.90;;;5.40;99.90;;;;;;5049967;28;20520;-80
2023/01/16 08:37:22;;;;;;;3.80;0.80;;;5.30;99.90;;;;;;5067013;28;20029;-81
2023/01/16 08:39:47;;;;;;;5.70;0.83;;;5.50;99.90;;;;;;5050084;28;20068;-80
2023/01/16 08:53:23;;;;;;;;;;;5.50;99.90;;;;;;5045035;28;19959;-80
2023/01/16 08:55:49;;;;;;;;;;;5.50;99.90;;;;;;5050185;28;19959;-81
2023/01/16 08:58:15;;;;;;;;;;;5.50;99.90;;;;;;5050169;28;19905;-81
2023/01/16 09:00:40;;;;;;;;;;;5.50;99.90;;;;;;5050016;28;19911;-81
2023/01/16 09:03:06;;;;;;;;;;;5.50;99.90;;;;;;5050338;28;19909;-81
2023/01/16 09:05:31;;;;;;;;;;;5.60;99.90;;;;;;5066900;28;20300;-81
2023/01/16 09:07:57;;;;;;;;;;;5.60;99.90;;;;;;5049841;28;19905;-80
2023/01/16 09:10:24;;;;;;;;;;;5.50;99.90;;;;;;5050256;28;19925;-84
2023/01/16 09:15:34;;;;;;;;;;;5.70;99.90;;;;;;5047998;28;20289;-83
2023/01/16 09:17:59;;;;;;;;;;;5.60;99.90;;;;;;5034515;28;19905;-81
2023/01/16 09:20:25;;;;;;;;;;;5.60;99.90;;;;;;5049725;28;20396;-81
2023/01/16 09:22:56;;;;;;;;;;;5.70;99.90;;;;;;5049693;28;20353;-80
2023/01/16 09:25:22;;;;;;;;;;;5.70;99.90;;;;;;5049708;28;20278;-84
2023/01/16 09:27:47;;;;;;;;;;;5.70;99.90;;;;;;5049592;28;19909;-81
2023/01/16 09:30:13;;;;;;;;;;;5.70;99.90;;;;;;5049759;28;19952;-81
2023/01/16 09:32:38;;;;;;;;;;;5.70;99.90;;;;;;5049801;28;19909;-80
2023/01/16 09:35:04;;;;;;;;;;;5.80;99.90;;;;;;5049433;28;19917;-80
2023/01/16 09:37:30;;;;;;;;;;;5.80;99.90;;;;;;5049520;28;19916;-80
2023/01/16 09:39:55;;;;;;;;;;;5.80;99.90;;;;;;5049711;28;20071;-81
2023/01/16 09:45:22;;;;;;;;;;;5.80;99.90;;;;;;5035418;28;19920;-79
2023/01/16 09:47:50;;;;;;;;;;;5.80;99.90;;;;;;5049127;28;19963;-82
2023/01/16 09:50:19;;;;;;;;;;;5.80;99.90;;;;;;5049711;28;19909;-80
2023/01/16 09:58:37;;;;;;;;;;;5.80;99.90;;;;;;5034780;28;19912;-80
2023/01/16 10:01:04;;;;;;;;;;;5.90;99.90;;;;;;5049525;28;19905;-83
2023/01/16 10:03:30;;;;;;;;;;;5.90;99.90;;;;;;5049229;28;19905;-82
2023/01/16 10:06:02;;;;;;;;;;;5.90;99.90;;;;;;5048998;28;19924;-81
2023/01/16 10:08:27;;;;;;;;;;;5.90;99.90;;;;;;5049504;28;19930;-84
2023/01/16 10:11:12;;;;;;;;;;;5.90;99.90;;;;;;5048962;28;19905;-82
2023/01/16 10:13:43;;;;;;;;;;;5.90;99.90;;;;;;5049196;28;19912;-83
2023/01/16 10:16:12;;;;;;;;;;;5.90;99.90;;;;;;5032419;28;19905;-83
2023/01/16 10:18:50;;;;;;;;;;;5.90;99.90;;;;;;5049098;28;20372;-81
2023/01/16 10:21:36;;;;;;;;;;;5.90;99.90;;;;;;5048830;28;19912;-82
2023/01/16 10:24:28;;;;;;;;;;;5.90;99.90;;;;;;5037542;28;20273;-81
2023/01/16 10:26:57;;;;;;;;;;;5.90;99.90;;;;;;5052970;28;20273;-82
2023/01/16 10:29:30;;;;;;;;;;;5.80;99.90;;;;;;5053247;28;19994;-81
2023/01/16 10:31:55;;;;;;;;;;;5.80;99.90;;;;;;5053509;28;19952;-83
2023/01/16 10:34:23;;;;;;;;;;;5.80;99.90;;;;;;5053074;28;19913;-83
2023/01/16 10:36:52;;;;;;;;;;;5.80;99.90;;;;;;5053079;28;19905;-81
2023/01/16 10:39:19;;;;;;;;;;;5.80;99.90;;;;;;5053156;28;19911;-81
2023/01/16 10:50:03;;;;;;;;;;;5.70;99.90;;;;;;5037939;28;20391;-82
2023/01/16 10:52:29;;;;;;;;;;;5.80;99.90;;;;;;5037121;28;19947;-81
2023/01/16 10:54:56;;;;;;;;;;;5.80;99.90;;;;;;5052405;28;19909;-81
2023/01/16 10:57:22;;;;;;;;;;;5.80;99.90;;;;;;5037019;28;19905;-83
2023/01/16 10:59:50;;;;;;;;;;;5.80;99.90;;;;;;5052291;28;20368;-81
2023/01/16 11:02:24;;;;;;;;;;;5.80;99.90;;;;;;5052415;28;20086;-82
2023/01/16 11:04:52;;;;;;;;;;;5.80;99.90;;;;;;5052930;28;19909;-81
2023/01/16 11:07:19;;;;;;;;;;;5.90;99.90;;;;;;5037281;28;20009;-80
2023/01/16 11:09:45;;;;;;;;;;;5.90;99.90;;;;;;5069022;28;19996;-80
2023/01/16 11:20:38;;;;;;;;;;;6.00;99.90;;;;;;5037855;28;20051;-81
2023/01/16 11:23:24;;;;;;;;;;;6.00;99.90;;;;;;5053660;28;19905;-81
2023/01/16 11:25:50;;;;;;;;;;;6.00;99.90;;;;;;5052555;28;19909;-82
2023/01/16 11:28:19;;;;;;;;;;;6.00;99.90;;;;;;5053101;28;19909;-82
2023/01/16 11:30:46;;;;;;;;;;;6.10;99.90;;;;;;5052854;28;20284;-82
2023/01/16 11:33:22;;;;;;;;;;;6.20;99.90;;;;;;5051620;28;20350;-83
2023/01/16 11:35:58;;;;;;;;;;;6.30;99.90;;;;;;5051016;28;19911;-81
2023/01/16 11:38:24;;;;;;;;;;;6.40;99.90;;;;;;5051190;28;20007;-82
2023/01/16 11:40:50;;;;;;;;;;;6.50;99.90;;;;;;5050725;28;19905;-82
2023/01/16 11:46:20;;;;;;;;;;;6.70;99.90;;;;;;5035780;28;20391;-83
2023/01/16 11:48:48;;;;;;;;;;;6.80;99.90;;;;;;5050703;28;20340;-82
2023/01/16 11:51:17;;;;;;;;;;;6.80;99.90;;;;;;5067124;28;19917;-82
2023/01/16 11:53:44;;;;;;;;;;;6.70;99.90;;;;;;5050506;28;19905;-83
2023/01/16 11:56:19;;;;;;;;;;;6.70;99.90;;;;;;5050589;28;19905;-83
2023/01/16 11:59:06;;;;;;;;;;;6.60;99.90;;;;;;5050709;28;19905;-83
2023/01/16 12:02:15;;;;;;;;;;;6.60;99.90;;;;;;5050315;28;19905;-83
2023/01/16 12:04:19;;;;;;;;;;;6.70;99.90;;;;;;5034774;28;20349;-83
2023/01/16 12:06:51;;;;;;;;;;;6.80;99.90;;;;;;5050230;28;19995;-83
2023/01/16 12:09:25;;;;;;;;;;;6.80;99.90;;;;;;5050080;28;19905;-83
2023/01/16 12:14:58;;;;;;;;;;;6.90;99.90;;;;;;5035570;28;19934;-83
2023/01/16 12:17:30;;;;;;;;;;;7.10;99.90;;;;;;5066502;28;19911;-83
2023/01/16 12:20:08;;;;;;;;;;;7.00;99.90;;;;;;5049693;28;19928;-83
2023/01/16 12:22:40;;;;;;;;;;;7.10;99.90;;;;;;5049574;28;20350;-83
2023/01/16 12:25:18;;;;;;;;;;;7.10;99.90;;;;;;5049805;28;19912;-82
2023/01/16 12:28:06;;;;;;;;;;;7.10;99.90;;;;;;5034397;28;19905;-83
2023/01/16 12:33:53;;;;;;;;;;;7.10;99.90;;;;;;4991834;28;1270530;-82
2023/01/16 12:36:27;;;;;;;;;;;7.10;99.90;;;;;;5035063;28;20327;-83
2023/01/16 12:38:56;;;;;;;;;;;7.20;99.90;;;;;;5050804;28;19905;-83
2023/01/16 12:44:16;;;;;;;;;;;7.20;99.90;;;;;;5036366;28;20039;-83
2023/01/16 12:46:55;;;;;;;;;;;7.20;99.90;;;;;;5049850;28;19905;-83
2023/01/16 12:49:27;;;;;;;;;;;7.30;99.90;;;;;;5050342;28;20000;-83
2023/01/16 12:52:05;;;;;;;;;;;7.40;99.90;;;;;;5050310;28;19927;-83
2023/01/16 12:54:30;;;;;;;;;;;7.40;99.90;;;;;;5050438;28;19905;-84
2023/01/16 12:57:08;;;;;;;;;;;7.50;99.90;;;;;;5050529;28;19912;-84
2023/01/16 12:59:44;;;;;;;;;;;7.50;99.90;;;;;;5050270;28;19905;-84
2023/01/16 13:02:12;;;;;;;;;;;7.60;99.90;;;;;;5050203;28;19905;-84
2023/01/16 13:04:41;;;;;;;;;;;7.70;99.90;;;;;;5049984;28;19909;-84
2023/01/16 13:07:07;;;;;;;;;;;7.90;99.90;;;;;;5050235;28;19905;-83
2023/01/16 13:09:40;;;;;;;;;;;7.90;99.90;;;;;;5034834;28;19959;-83
2023/01/16 13:15:09;;;;;;;;;;;7.90;99.90;;;;;;5041231;28;19951;-82
2023/01/16 13:17:47;;;;;;;;;;;7.80;99.90;;;;;;5050371;28;19928;-83
2023/01/16 13:20:14;;;;;;;;;;;7.80;99.90;;;;;;5050345;28;20003;-83
2023/01/16 13:22:55;;;;;;;;;;;7.70;99.90;;;;;;5050126;28;19905;-84
2023/01/16 13:25:24;;;;;;;;;;;7.60;99.90;;;;;;5049606;28;19916;-83
2023/01/16 13:27:58;;;;;;;;;;;7.60;99.90;;;;;;5049551;28;19905;-82
2023/01/16 13:30:24;;;;;;;;;;;7.50;99.90;;;;;;5049650;28;19905;-81
2023/01/16 13:33:01;;;;;;;;;;;7.40;99.90;;;;;;5049815;28;19905;-81
2023/01/16 13:35:32;;;;;;;;;;;7.40;99.90;;;;;;5049321;28;19913;-81
2023/01/16 13:37:57;;;;;;;;;;;7.40;99.90;;;;;;5049497;28;20254;-83
2023/01/16 13:40:26;;;;;;;;;;;7.40;99.90;;;;;;5049804;28;19916;-82
2023/01/16 13:45:47;;;;;;;;;;;7.30;99.90;;;;;;5034840;28;19905;-83
2023/01/16 13:45:49;;;;;;;;;;;7.30;99.90;;;;;;5034742;28;19916;-83
2023/01/16 13:48:19;;;;;;;;;;;7.20;99.90;;;;;;5049173;28;20047;-83
2023/01/16 13:50:48;;;;;;;;;;;7.20;99.90;;;;;;5049299;28;20010;-82
2023/01/16 13:53:14;;;;;;;;;;;7.20;99.90;;;;;;5049030;28;19906;-83
2023/01/16 13:55:42;;;;;;;;;;;7.20;99.90;;;;;;5048819;28;19928;-84
2023/01/16 13:58:26;;;;;;;;;;;7.10;99.90;;;;;;5049833;28;19909;-82
2023/01/16 14:00:59;;;;;;;;;;;7.10;99.90;;;;;;5051799;28;19905;-83
2023/01/16 14:03:26;;;;;;;;;;;7.00;99.90;;;;;;5052291;28;19904;-83
2023/01/16 14:06:07;;;;;;;;;;;7.00;99.90;;;;;;5081849;28;19955;-83
2023/01/16 14:11:23;;;;;;;;;;;7.00;99.90;;;;;;5054159;28;19912;-83
2023/01/16 14:13:48;;;;;;;;;;;6.90;99.90;;;;;;5073387;28;20042;-85
2023/01/16 14:16:35;;;;;;;;;;;6.90;99.90;;;;;;5078194;28;19958;-84
2023/01/16 14:19:13;;;;;;;;;;;6.80;99.90;;;;;;5069056;28;19905;-82
2023/01/16 14:21:38;;;;;;;;;;;6.80;99.90;;;;;;5053501;28;19963;-84
2023/01/16 14:24:14;;;;;;;;;;;6.80;99.90;;;;;;5053366;28;19905;-84
2023/01/16 14:26:44;;;;;;;;;;;6.80;99.90;;;;;;5052512;28;20042;-85
2023/01/16 14:29:13;;;;;;;;;;;6.70;99.90;;;;;;5052300;28;19939;-84
2023/01/16 14:31:41;;;;;;;;;;;6.70;99.90;;;;;;5052249;28;19916;-83
2023/01/16 14:34:17;;;;;;;;;;;6.70;99.90;;;;;;5051736;28;19924;-83
2023/01/16 14:36:46;;;;;;;;;;;6.70;99.90;;;;;;5052931;28;19962;-83
2023/01/16 14:39:25;;;;;;;;;;;6.70;99.90;;;;;;5035942;28;19908;-83
2023/01/16 14:56:18;;;;;;;;;;;6.60;99.90;;;;;;5052086;28;19963;-83
2023/01/16 14:58:59;;;;;;;;;;;6.60;99.90;;;;;;5032005;28;19987;-83
2023/01/16 15:04:48;;;;;;;;;;;6.50;99.90;;;;;;5034677;28;19955;-81
2023/01/16 15:07:20;;;;;;;;;;;6.50;99.90;;;;;;5031730;28;19967;-81
2023/01/16 15:09:46;;;;;;;;;;;6.50;99.90;;;;;;5034742;28;19912;-80
2023/01/16 15:12:13;;;;;;;;;;;6.50;99.90;;;;;;5035289;28;20277;-81
2023/01/16 15:14:50;;;;;;;;;;;6.50;99.90;;;;;;5035474;28;19912;-81